sensor_id;sensor_type;location;lat;lon;timestamp;P1;durP1;ratioP1;P2;durP2;ratioP2
71503;SDS011;59323;50.874;7.028;2022-11-20T00:01:09;19.65;;;8.20;;
71503;SDS011;59323;50.874;7.028;2022-11-20T00:03:36;20.38;;;8.25;;
71503;SDS011;59323;50.874;7.028;2022-11-20T00:06:02;22.95;;;9.10;;
71503;SDS011;59323;50.874;7.028;2022-11-20T00:08:29;19.57;;;8.43;;
71503;SDS011;59323;50.874;7.028;2022-11-20T00:10:55;20.92;;;7.82;;
71503;SDS011;59323;50.874;7.028;2022-11-20T00:13:20;22.77;;;7.80;;
71503;SDS011;59323;50.874;7.028;2022-11-20T00:15:45;21.50;;;7.87;;
71503;SDS011;59323;50.874;7.028;2022-11-20T00:18:11;16.80;;;6.97;;
71503;SDS011;59323;50.874;7.028;2022-11-20T00:20:36;20.70;;;7.93;;
71503;SDS011;59323;50.874;7.028;2022-11-20T00:23:01;19.63;;;7.13;;
71503;SDS011;59323;50.874;7.028;2022-11-20T00:25:26;18.57;;;7.53;;
71503;SDS011;59323;50.874;7.028;2022-11-20T00:27:52;21.37;;;8.00;;
71503;SDS011;59323;50.874;7.028;2022-11-20T00:30:17;18.00;;;7.53;;
71503;SDS011;59323;50.874;7.028;2022-11-20T00:32:43;19.07;;;8.17;;
71503;SDS011;59323;50.874;7.028;2022-11-20T00:35:08;18.07;;;7.00;;
71503;SDS011;59323;50.874;7.028;2022-11-20T00:37:33;20.55;;;8.00;;
71503;SDS011;59323;50.874;7.028;2022-11-20T00:39:59;17.00;;;7.53;;
71503;SDS011;59323;50.874;7.028;2022-11-20T00:42:24;17.27;;;7.23;;
71503;SDS011;59323;50.874;7.028;2022-11-20T00:44:49;18.43;;;7.70;;
71503;SDS011;59323;50.874;7.028;2022-11-20T00:47:15;19.87;;;7.87;;
71503;SDS011;59323;50.874;7.028;2022-11-20T00:49:40;18.83;;;7.13;;
71503;SDS011;59323;50.874;7.028;2022-11-20T00:52:05;20.23;;;7.97;;
71503;SDS011;59323;50.874;7.028;2022-11-20T00:54:31;16.40;;;7.30;;
71503;SDS011;59323;50.874;7.028;2022-11-20T00:56:56;19.03;;;7.60;;
71503;SDS011;59323;50.874;7.028;2022-11-20T00:59:21;20.67;;;8.53;;
71503;SDS011;59323;50.874;7.028;2022-11-20T01:01:47;19.43;;;8.10;;
71503;SDS011;59323;50.874;7.028;2022-11-20T01:04:12;23.17;;;8.53;;
71503;SDS011;59323;50.874;7.028;2022-11-20T01:06:38;18.83;;;7.33;;
71503;SDS011;59323;50.874;7.028;2022-11-20T01:09:05;16.00;;;6.60;;
71503;SDS011;59323;50.874;7.028;2022-11-20T01:11:36;18.05;;;7.70;;
71503;SDS011;59323;50.874;7.028;2022-11-20T01:14:04;18.92;;;7.97;;
71503;SDS011;59323;50.874;7.028;2022-11-20T01:16:38;18.23;;;7.00;;
71503;SDS011;59323;50.874;7.028;2022-11-20T01:19:07;18.48;;;7.05;;
71503;SDS011;59323;50.874;7.028;2022-11-20T01:21:40;16.70;;;7.43;;
71503;SDS011;59323;50.874;7.028;2022-11-20T01:24:08;17.48;;;7.57;;
71503;SDS011;59323;50.874;7.028;2022-11-20T01:26:37;19.98;;;7.68;;
71503;SDS011;59323;50.874;7.028;2022-11-20T01:29:04;21.02;;;7.70;;
71503;SDS011;59323;50.874;7.028;2022-11-20T01:31:35;20.38;;;7.90;;
71503;SDS011;59323;50.874;7.028;2022-11-20T01:34:12;20.03;;;8.23;;
71503;SDS011;59323;50.874;7.028;2022-11-20T01:36:39;19.67;;;7.65;;
71503;SDS011;59323;50.874;7.028;2022-11-20T01:39:07;17.90;;;7.28;;
71503;SDS011;59323;50.874;7.028;2022-11-20T01:41:35;18.30;;;7.90;;
71503;SDS011;59323;50.874;7.028;2022-11-20T01:44:20;18.48;;;7.70;;
71503;SDS011;59323;50.874;7.028;2022-11-20T01:46:57;18.93;;;7.40;;
71503;SDS011;59323;50.874;7.028;2022-11-20T01:49:27;20.15;;;7.65;;
71503;SDS011;59323;50.874;7.028;2022-11-20T01:52:14;20.17;;;7.78;;
71503;SDS011;59323;50.874;7.028;2022-11-20T01:55:05;19.10;;;7.93;;
71503;SDS011;59323;50.874;7.028;2022-11-20T01:57:34;20.42;;;7.40;;
71503;SDS011;59323;50.874;7.028;2022-11-20T02:00:07;17.03;;;6.87;;
71503;SDS011;59323;50.874;7.028;2022-11-20T02:02:36;19.52;;;7.72;;
71503;SDS011;59323;50.874;7.028;2022-11-20T02:05:14;18.80;;;7.28;;
71503;SDS011;59323;50.874;7.028;2022-11-20T02:07:59;17.80;;;7.25;;
71503;SDS011;59323;50.874;7.028;2022-11-20T02:10:25;15.25;;;6.75;;
71503;SDS011;59323;50.874;7.028;2022-11-20T02:12:53;15.00;;;6.30;;
71503;SDS011;59323;50.874;7.028;2022-11-20T02:15:37;19.63;;;7.55;;
71503;SDS011;59323;50.874;7.028;2022-11-20T02:18:03;16.97;;;7.10;;
71503;SDS011;59323;50.874;7.028;2022-11-20T02:20:30;19.13;;;7.30;;
71503;SDS011;59323;50.874;7.028;2022-11-20T02:25:24;19.40;;;7.77;;
71503;SDS011;59323;50.874;7.028;2022-11-20T02:27:52;18.88;;;7.50;;
71503;SDS011;59323;50.874;7.028;2022-11-20T02:30:17;18.10;;;7.13;;
71503;SDS011;59323;50.874;7.028;2022-11-20T02:32:43;18.58;;;7.68;;
71503;SDS011;59323;50.874;7.028;2022-11-20T02:35:09;19.13;;;7.60;;
71503;SDS011;59323;50.874;7.028;2022-11-20T02:37:56;17.17;;;7.68;;
71503;SDS011;59323;50.874;7.028;2022-11-20T02:40:24;16.00;;;6.68;;
71503;SDS011;59323;50.874;7.028;2022-11-20T02:42:56;19.23;;;7.63;;
71503;SDS011;59323;50.874;7.028;2022-11-20T02:45:22;17.73;;;7.38;;
71503;SDS011;59323;50.874;7.028;2022-11-20T02:47:48;16.70;;;6.65;;
71503;SDS011;59323;50.874;7.028;2022-11-20T02:50:14;18.37;;;7.83;;
71503;SDS011;59323;50.874;7.028;2022-11-20T02:52:39;17.35;;;7.05;;
71503;SDS011;59323;50.874;7.028;2022-11-20T02:55:05;18.40;;;7.60;;
71503;SDS011;59323;50.874;7.028;2022-11-20T02:57:30;20.40;;;8.02;;
71503;SDS011;59323;50.874;7.028;2022-11-20T02:59:56;18.77;;;6.97;;
71503;SDS011;59323;50.874;7.028;2022-11-20T03:02:21;20.27;;;7.80;;
71503;SDS011;59323;50.874;7.028;2022-11-20T03:04:46;17.97;;;7.60;;
71503;SDS011;59323;50.874;7.028;2022-11-20T03:07:12;18.23;;;7.47;;
71503;SDS011;59323;50.874;7.028;2022-11-20T03:09:37;16.97;;;6.97;;
71503;SDS011;59323;50.874;7.028;2022-11-20T03:12:02;18.97;;;7.53;;
71503;SDS011;59323;50.874;7.028;2022-11-20T03:14:28;19.87;;;8.13;;
71503;SDS011;59323;50.874;7.028;2022-11-20T03:16:53;19.97;;;8.20;;
71503;SDS011;59323;50.874;7.028;2022-11-20T03:19:20;20.77;;;8.45;;
71503;SDS011;59323;50.874;7.028;2022-11-20T03:21:45;18.83;;;7.33;;
71503;SDS011;59323;50.874;7.028;2022-11-20T03:24:10;20.93;;;7.73;;
71503;SDS011;59323;50.874;7.028;2022-11-20T03:26:35;22.38;;;7.75;;
71503;SDS011;59323;50.874;7.028;2022-11-20T03:29:02;19.67;;;6.50;;
71503;SDS011;59323;50.874;7.028;2022-11-20T03:31:30;18.35;;;7.57;;
71503;SDS011;59323;50.874;7.028;2022-11-20T03:33:57;18.33;;;7.23;;
71503;SDS011;59323;50.874;7.028;2022-11-20T03:36:23;18.48;;;7.93;;
71503;SDS011;59323;50.874;7.028;2022-11-20T03:38:49;21.20;;;8.10;;
71503;SDS011;59323;50.874;7.028;2022-11-20T03:41:19;17.90;;;7.50;;
71503;SDS011;59323;50.874;7.028;2022-11-20T03:43:49;18.48;;;7.43;;
71503;SDS011;59323;50.874;7.028;2022-11-20T03:46:16;18.40;;;7.05;;
71503;SDS011;59323;50.874;7.028;2022-11-20T03:48:41;19.03;;;7.97;;
71503;SDS011;59323;50.874;7.028;2022-11-20T03:53:33;18.67;;;7.68;;
71503;SDS011;59323;50.874;7.028;2022-11-20T03:55:59;19.73;;;7.55;;
71503;SDS011;59323;50.874;7.028;2022-11-20T03:58:24;18.57;;;7.77;;
71503;SDS011;59323;50.874;7.028;2022-11-20T04:00:49;22.80;;;8.50;;
71503;SDS011;59323;50.874;7.028;2022-11-20T04:03:15;18.67;;;7.47;;
71503;SDS011;59323;50.874;7.028;2022-11-20T04:05:40;19.87;;;7.37;;
71503;SDS011;59323;50.874;7.028;2022-11-20T04:08:11;21.83;;;8.33;;
71503;SDS011;59323;50.874;7.028;2022-11-20T04:10:37;22.80;;;8.32;;
71503;SDS011;59323;50.874;7.028;2022-11-20T04:13:02;21.90;;;7.97;;
71503;SDS011;59323;50.874;7.028;2022-11-20T04:15:28;21.20;;;7.47;;
71503;SDS011;59323;50.874;7.028;2022-11-20T04:17:54;21.03;;;7.67;;
71503;SDS011;59323;50.874;7.028;2022-11-20T04:20:20;20.25;;;7.75;;
71503;SDS011;59323;50.874;7.028;2022-11-20T04:22:45;18.83;;;7.97;;
71503;SDS011;59323;50.874;7.028;2022-11-20T04:25:11;22.40;;;8.95;;
71503;SDS011;59323;50.874;7.028;2022-11-20T04:27:36;23.60;;;8.57;;
71503;SDS011;59323;50.874;7.028;2022-11-20T04:30:01;26.60;;;9.13;;
71503;SDS011;59323;50.874;7.028;2022-11-20T04:32:27;18.50;;;6.97;;
71503;SDS011;59323;50.874;7.028;2022-11-20T04:34:52;22.70;;;8.47;;
71503;SDS011;59323;50.874;7.028;2022-11-20T04:37:17;22.67;;;8.73;;
71503;SDS011;59323;50.874;7.028;2022-11-20T04:39:43;21.58;;;8.63;;
71503;SDS011;59323;50.874;7.028;2022-11-20T04:42:09;22.90;;;9.33;;
71503;SDS011;59323;50.874;7.028;2022-11-20T04:44:53;23.30;;;9.03;;
71503;SDS011;59323;50.874;7.028;2022-11-20T04:47:19;23.70;;;8.85;;
71503;SDS011;59323;50.874;7.028;2022-11-20T04:49:44;20.57;;;8.13;;
71503;SDS011;59323;50.874;7.028;2022-11-20T04:52:10;22.37;;;8.13;;
71503;SDS011;59323;50.874;7.028;2022-11-20T04:54:35;22.63;;;8.40;;
71503;SDS011;59323;50.874;7.028;2022-11-20T04:57:00;24.50;;;9.27;;
71503;SDS011;59323;50.874;7.028;2022-11-20T04:59:26;23.83;;;8.70;;
71503;SDS011;59323;50.874;7.028;2022-11-20T05:01:51;22.43;;;9.07;;
71503;SDS011;59323;50.874;7.028;2022-11-20T05:04:16;24.57;;;9.53;;
71503;SDS011;59323;50.874;7.028;2022-11-20T05:06:42;23.63;;;8.80;;
71503;SDS011;59323;50.874;7.028;2022-11-20T05:09:07;20.43;;;8.67;;
71503;SDS011;59323;50.874;7.028;2022-11-20T05:11:32;21.50;;;7.90;;
71503;SDS011;59323;50.874;7.028;2022-11-20T05:13:58;20.53;;;8.07;;
71503;SDS011;59323;50.874;7.028;2022-11-20T05:16:24;22.15;;;8.68;;
71503;SDS011;59323;50.874;7.028;2022-11-20T05:18:51;23.70;;;8.93;;
71503;SDS011;59323;50.874;7.028;2022-11-20T05:21:18;22.63;;;8.25;;
71503;SDS011;59323;50.874;7.028;2022-11-20T05:23:44;22.00;;;8.60;;
71503;SDS011;59323;50.874;7.028;2022-11-20T05:26:17;22.15;;;8.50;;
71503;SDS011;59323;50.874;7.028;2022-11-20T05:28:44;20.43;;;7.47;;
71503;SDS011;59323;50.874;7.028;2022-11-20T05:31:11;20.15;;;8.10;;
71503;SDS011;59323;50.874;7.028;2022-11-20T05:33:39;23.10;;;9.15;;
71503;SDS011;59323;50.874;7.028;2022-11-20T05:36:05;22.85;;;9.20;;
71503;SDS011;59323;50.874;7.028;2022-11-20T05:38:31;24.75;;;9.00;;
71503;SDS011;59323;50.874;7.028;2022-11-20T05:41:07;24.57;;;9.53;;
71503;SDS011;59323;50.874;7.028;2022-11-20T05:43:39;19.40;;;7.78;;
71503;SDS011;59323;50.874;7.028;2022-11-20T05:46:06;21.25;;;7.70;;
71503;SDS011;59323;50.874;7.028;2022-11-20T05:48:33;20.67;;;7.97;;
71503;SDS011;59323;50.874;7.028;2022-11-20T05:51:00;22.60;;;8.48;;
71503;SDS011;59323;50.874;7.028;2022-11-20T05:53:26;21.55;;;8.32;;
71503;SDS011;59323;50.874;7.028;2022-11-20T05:56:03;20.13;;;8.07;;
71503;SDS011;59323;50.874;7.028;2022-11-20T05:58:30;20.55;;;8.63;;
71503;SDS011;59323;50.874;7.028;2022-11-20T06:01:04;24.20;;;8.67;;
71503;SDS011;59323;50.874;7.028;2022-11-20T06:03:31;25.42;;;9.25;;
71503;SDS011;59323;50.874;7.028;2022-11-20T06:05:58;23.63;;;9.23;;
71503;SDS011;59323;50.874;7.028;2022-11-20T06:08:24;22.57;;;7.83;;
71503;SDS011;59323;50.874;7.028;2022-11-20T06:10:49;25.23;;;8.13;;
71503;SDS011;59323;50.874;7.028;2022-11-20T06:13:14;23.30;;;9.18;;
71503;SDS011;59323;50.874;7.028;2022-11-20T06:15:39;22.83;;;8.93;;
71503;SDS011;59323;50.874;7.028;2022-11-20T06:18:05;18.87;;;7.90;;
71503;SDS011;59323;50.874;7.028;2022-11-20T06:20:30;19.67;;;7.50;;
71503;SDS011;59323;50.874;7.028;2022-11-20T06:22:55;21.80;;;8.67;;
71503;SDS011;59323;50.874;7.028;2022-11-20T06:25:21;24.00;;;8.20;;
71503;SDS011;59323;50.874;7.028;2022-11-20T06:27:46;23.57;;;8.90;;
71503;SDS011;59323;50.874;7.028;2022-11-20T06:30:11;20.10;;;7.93;;
71503;SDS011;59323;50.874;7.028;2022-11-20T06:32:37;21.98;;;8.63;;
71503;SDS011;59323;50.874;7.028;2022-11-20T06:35:02;20.30;;;8.03;;
71503;SDS011;59323;50.874;7.028;2022-11-20T06:37:28;22.70;;;8.80;;
71503;SDS011;59323;50.874;7.028;2022-11-20T06:39:53;19.60;;;7.75;;
71503;SDS011;59323;50.874;7.028;2022-11-20T06:42:19;19.47;;;7.93;;
71503;SDS011;59323;50.874;7.028;2022-11-20T06:44:44;22.60;;;8.43;;
71503;SDS011;59323;50.874;7.028;2022-11-20T06:47:09;23.40;;;8.87;;
71503;SDS011;59323;50.874;7.028;2022-11-20T06:49:35;21.53;;;8.50;;
71503;SDS011;59323;50.874;7.028;2022-11-20T06:52:02;20.83;;;8.32;;
71503;SDS011;59323;50.874;7.028;2022-11-20T06:54:27;23.67;;;8.07;;
71503;SDS011;59323;50.874;7.028;2022-11-20T06:56:52;20.70;;;8.23;;
71503;SDS011;59323;50.874;7.028;2022-11-20T06:59:18;23.17;;;8.83;;
71503;SDS011;59323;50.874;7.028;2022-11-20T07:01:43;23.50;;;8.93;;
71503;SDS011;59323;50.874;7.028;2022-11-20T07:04:08;20.00;;;7.60;;
71503;SDS011;59323;50.874;7.028;2022-11-20T07:06:34;24.37;;;8.97;;
71503;SDS011;59323;50.874;7.028;2022-11-20T07:08:59;21.33;;;7.97;;
71503;SDS011;59323;50.874;7.028;2022-11-20T07:11:24;22.20;;;8.17;;
71503;SDS011;59323;50.874;7.028;2022-11-20T07:13:50;23.13;;;8.70;;
71503;SDS011;59323;50.874;7.028;2022-11-20T07:16:15;22.13;;;8.47;;
71503;SDS011;59323;50.874;7.028;2022-11-20T07:18:41;20.27;;;7.90;;
71503;SDS011;59323;50.874;7.028;2022-11-20T07:21:07;20.77;;;8.47;;
71503;SDS011;59323;50.874;7.028;2022-11-20T07:23:34;19.93;;;8.33;;
71503;SDS011;59323;50.874;7.028;2022-11-20T07:26:03;21.35;;;8.65;;
71503;SDS011;59323;50.874;7.028;2022-11-20T07:28:35;23.77;;;8.82;;
71503;SDS011;59323;50.874;7.028;2022-11-20T07:31:01;23.60;;;8.40;;
71503;SDS011;59323;50.874;7.028;2022-11-20T07:33:27;22.52;;;8.82;;
71503;SDS011;59323;50.874;7.028;2022-11-20T07:35:52;21.57;;;8.43;;
71503;SDS011;59323;50.874;7.028;2022-11-20T07:38:17;22.80;;;8.38;;
71503;SDS011;59323;50.874;7.028;2022-11-20T07:40:43;21.60;;;7.80;;
71503;SDS011;59323;50.874;7.028;2022-11-20T07:43:08;19.70;;;8.30;;
71503;SDS011;59323;50.874;7.028;2022-11-20T07:45:34;21.73;;;8.57;;
71503;SDS011;59323;50.874;7.028;2022-11-20T07:47:59;22.13;;;8.52;;
71503;SDS011;59323;50.874;7.028;2022-11-20T07:50:25;21.87;;;8.93;;
71503;SDS011;59323;50.874;7.028;2022-11-20T07:52:50;20.53;;;7.77;;
71503;SDS011;59323;50.874;7.028;2022-11-20T07:55:15;19.13;;;7.80;;
71503;SDS011;59323;50.874;7.028;2022-11-20T07:57:43;21.42;;;8.65;;
71503;SDS011;59323;50.874;7.028;2022-11-20T08:00:09;23.33;;;8.40;;
71503;SDS011;59323;50.874;7.028;2022-11-20T08:02:39;20.42;;;8.68;;
71503;SDS011;59323;50.874;7.028;2022-11-20T08:05:05;23.33;;;8.77;;
71503;SDS011;59323;50.874;7.028;2022-11-20T08:07:35;21.88;;;8.65;;
71503;SDS011;59323;50.874;7.028;2022-11-20T08:10:08;21.80;;;8.53;;
71503;SDS011;59323;50.874;7.028;2022-11-20T08:12:35;23.85;;;9.45;;
71503;SDS011;59323;50.874;7.028;2022-11-20T08:15:19;24.52;;;8.73;;
71503;SDS011;59323;50.874;7.028;2022-11-20T08:17:47;22.58;;;9.23;;
71503;SDS011;59323;50.874;7.028;2022-11-20T08:20:12;20.43;;;8.57;;
71503;SDS011;59323;50.874;7.028;2022-11-20T08:22:38;22.37;;;8.90;;
71503;SDS011;59323;50.874;7.028;2022-11-20T08:25:03;22.77;;;9.57;;
71503;SDS011;59323;50.874;7.028;2022-11-20T08:27:29;23.50;;;8.63;;
71503;SDS011;59323;50.874;7.028;2022-11-20T08:29:56;20.98;;;8.85;;
71503;SDS011;59323;50.874;7.028;2022-11-20T08:32:22;24.30;;;9.53;;
71503;SDS011;59323;50.874;7.028;2022-11-20T08:34:47;25.00;;;9.47;;
71503;SDS011;59323;50.874;7.028;2022-11-20T08:37:12;21.47;;;8.33;;
71503;SDS011;59323;50.874;7.028;2022-11-20T08:39:38;22.47;;;9.43;;
71503;SDS011;59323;50.874;7.028;2022-11-20T08:42:06;20.10;;;8.33;;
71503;SDS011;59323;50.874;7.028;2022-11-20T08:44:32;22.47;;;8.93;;
71503;SDS011;59323;50.874;7.028;2022-11-20T08:46:57;25.15;;;9.63;;
71503;SDS011;59323;50.874;7.028;2022-11-20T08:49:25;23.67;;;9.60;;
71503;SDS011;59323;50.874;7.028;2022-11-20T08:51:50;24.67;;;10.07;;
71503;SDS011;59323;50.874;7.028;2022-11-20T08:54:18;20.58;;;8.48;;
71503;SDS011;59323;50.874;7.028;2022-11-20T08:56:46;22.42;;;9.75;;
71503;SDS011;59323;50.874;7.028;2022-11-20T08:59:12;23.57;;;9.43;;
71503;SDS011;59323;50.874;7.028;2022-11-20T09:01:37;24.10;;;10.07;;
71503;SDS011;59323;50.874;7.028;2022-11-20T09:04:05;23.88;;;9.82;;
71503;SDS011;59323;50.874;7.028;2022-11-20T09:06:30;27.53;;;10.33;;
71503;SDS011;59323;50.874;7.028;2022-11-20T09:08:56;29.38;;;9.95;;
71503;SDS011;59323;50.874;7.028;2022-11-20T09:11:22;27.23;;;9.67;;
71503;SDS011;59323;50.874;7.028;2022-11-20T09:13:49;26.77;;;10.02;;
71503;SDS011;59323;50.874;7.028;2022-11-20T09:16:15;26.15;;;9.95;;
71503;SDS011;59323;50.874;7.028;2022-11-20T09:18:40;28.47;;;10.63;;
71503;SDS011;59323;50.874;7.028;2022-11-20T09:21:09;24.33;;;9.23;;
71503;SDS011;59323;50.874;7.028;2022-11-20T09:23:36;25.02;;;10.35;;
71503;SDS011;59323;50.874;7.028;2022-11-20T09:26:06;27.95;;;10.73;;
71503;SDS011;59323;50.874;7.028;2022-11-20T09:28:33;27.45;;;9.90;;
71503;SDS011;59323;50.874;7.028;2022-11-20T09:30:59;29.87;;;9.93;;
71503;SDS011;59323;50.874;7.028;2022-11-20T09:33:24;27.50;;;11.70;;
71503;SDS011;59323;50.874;7.028;2022-11-20T09:35:50;28.33;;;11.05;;
71503;SDS011;59323;50.874;7.028;2022-11-20T09:38:15;26.97;;;10.73;;
71503;SDS011;59323;50.874;7.028;2022-11-20T09:40:44;24.80;;;9.90;;
71503;SDS011;59323;50.874;7.028;2022-11-20T09:50:56;26.00;;;10.48;;
71503;SDS011;59323;50.874;7.028;2022-11-20T09:56:28;24.50;;;10.30;;
71503;SDS011;59323;50.874;7.028;2022-11-20T09:58:54;26.73;;;10.43;;
71503;SDS011;59323;50.874;7.028;2022-11-20T10:01:36;24.63;;;9.32;;
71503;SDS011;59323;50.874;7.028;2022-11-20T10:04:16;26.63;;;11.02;;
71503;SDS011;59323;50.874;7.028;2022-11-20T10:06:53;27.07;;;9.87;;
71503;SDS011;59323;50.874;7.028;2022-11-20T10:09:29;27.83;;;10.80;;
71503;SDS011;59323;50.874;7.028;2022-11-20T10:12:05;28.10;;;10.45;;
71503;SDS011;59323;50.874;7.028;2022-11-20T10:30:34;27.33;;;9.97;;
71503;SDS011;59323;50.874;7.028;2022-11-20T10:33:06;28.67;;;11.45;;
71503;SDS011;59323;50.874;7.028;2022-11-20T10:35:39;26.83;;;10.93;;
71503;SDS011;59323;50.874;7.028;2022-11-20T10:38:16;30.83;;;10.75;;
71503;SDS011;59323;50.874;7.028;2022-11-20T10:41:00;26.90;;;10.27;;
71503;SDS011;59323;50.874;7.028;2022-11-20T10:43:46;27.75;;;10.00;;
71503;SDS011;59323;50.874;7.028;2022-11-20T10:46:17;30.33;;;11.63;;
71503;SDS011;59323;50.874;7.028;2022-11-20T10:48:47;28.20;;;11.07;;
71503;SDS011;59323;50.874;7.028;2022-11-20T10:56:50;31.15;;;11.32;;
71503;SDS011;59323;50.874;7.028;2022-11-20T11:02:17;27.37;;;10.87;;
71503;SDS011;59323;50.874;7.028;2022-11-20T11:04:46;27.63;;;10.80;;
71503;SDS011;59323;50.874;7.028;2022-11-20T11:09:43;28.40;;;10.90;;
71503;SDS011;59323;50.874;7.028;2022-11-20T11:12:12;30.63;;;11.85;;
71503;SDS011;59323;50.874;7.028;2022-11-20T11:17:20;31.20;;;11.18;;
71503;SDS011;59323;50.874;7.028;2022-11-20T11:19:56;29.65;;;11.43;;
71503;SDS011;59323;50.874;7.028;2022-11-20T11:22:22;26.65;;;10.23;;
71503;SDS011;59323;50.874;7.028;2022-11-20T11:24:51;29.57;;;11.77;;
71503;SDS011;59323;50.874;7.028;2022-11-20T11:27:17;30.33;;;10.90;;
71503;SDS011;59323;50.874;7.028;2022-11-20T11:29:43;30.43;;;12.17;;
71503;SDS011;59323;50.874;7.028;2022-11-20T11:32:14;29.85;;;11.10;;
71503;SDS011;59323;50.874;7.028;2022-11-20T11:34:42;28.00;;;10.63;;
71503;SDS011;59323;50.874;7.028;2022-11-20T11:37:17;29.70;;;10.73;;
71503;SDS011;59323;50.874;7.028;2022-11-20T11:39:46;27.67;;;11.18;;
71503;SDS011;59323;50.874;7.028;2022-11-20T11:42:17;25.00;;;9.98;;
71503;SDS011;59323;50.874;7.028;2022-11-20T11:44:45;27.30;;;10.47;;
71503;SDS011;59323;50.874;7.028;2022-11-20T11:47:31;30.27;;;11.10;;
71503;SDS011;59323;50.874;7.028;2022-11-20T11:52:40;28.92;;;10.63;;
71503;SDS011;59323;50.874;7.028;2022-11-20T11:55:17;27.65;;;11.07;;
71503;SDS011;59323;50.874;7.028;2022-11-20T12:03:55;26.40;;;10.40;;
71503;SDS011;59323;50.874;7.028;2022-11-20T12:06:29;24.00;;;9.98;;
71503;SDS011;59323;50.874;7.028;2022-11-20T12:11:34;27.10;;;10.13;;
71503;SDS011;59323;50.874;7.028;2022-11-20T12:14:13;31.88;;;11.50;;
71503;SDS011;59323;50.874;7.028;2022-11-20T12:16:44;26.05;;;10.93;;
71503;SDS011;59323;50.874;7.028;2022-11-20T12:19:11;31.02;;;12.23;;
71503;SDS011;59323;50.874;7.028;2022-11-20T12:30:11;31.55;;;10.95;;
71503;SDS011;59323;50.874;7.028;2022-11-20T12:32:52;24.90;;;10.15;;
71503;SDS011;59323;50.874;7.028;2022-11-20T12:43:19;32.67;;;11.50;;
71503;SDS011;59323;50.874;7.028;2022-11-20T12:57:06;24.90;;;10.07;;
71503;SDS011;59323;50.874;7.028;2022-11-20T13:02:40;26.13;;;10.77;;
71503;SDS011;59323;50.874;7.028;2022-11-20T13:07:32;31.87;;;10.53;;
71503;SDS011;59323;50.874;7.028;2022-11-20T13:10:00;29.52;;;10.98;;
71503;SDS011;59323;50.874;7.028;2022-11-20T13:12:33;25.65;;;9.95;;
71503;SDS011;59323;50.874;7.028;2022-11-20T13:18:10;25.10;;;10.43;;
71503;SDS011;59323;50.874;7.028;2022-11-20T13:20:41;27.80;;;11.43;;
71503;SDS011;59323;50.874;7.028;2022-11-20T13:23:08;30.48;;;10.38;;
71503;SDS011;59323;50.874;7.028;2022-11-20T13:25:35;28.85;;;10.93;;
71503;SDS011;59323;50.874;7.028;2022-11-20T13:28:25;27.00;;;10.18;;
71503;SDS011;59323;50.874;7.028;2022-11-20T13:30:54;25.90;;;10.07;;
71503;SDS011;59323;50.874;7.028;2022-11-20T13:33:28;23.73;;;10.45;;
71503;SDS011;59323;50.874;7.028;2022-11-20T13:36:20;24.92;;;9.80;;
71503;SDS011;59323;50.874;7.028;2022-11-20T13:38:47;26.10;;;9.98;;
71503;SDS011;59323;50.874;7.028;2022-11-20T13:41:27;25.75;;;10.45;;
71503;SDS011;59323;50.874;7.028;2022-11-20T13:46:46;24.88;;;9.75;;
71503;SDS011;59323;50.874;7.028;2022-11-20T13:49:32;29.00;;;10.50;;
71503;SDS011;59323;50.874;7.028;2022-11-20T14:03:36;24.02;;;9.65;;
71503;SDS011;59323;50.874;7.028;2022-11-20T14:06:04;24.87;;;9.83;;
71503;SDS011;59323;50.874;7.028;2022-11-20T14:08:39;27.13;;;10.73;;
71503;SDS011;59323;50.874;7.028;2022-11-20T14:16:30;26.52;;;10.07;;
71503;SDS011;59323;50.874;7.028;2022-11-20T14:19:08;24.13;;;10.27;;
71503;SDS011;59323;50.874;7.028;2022-11-20T14:21:42;25.55;;;9.82;;
71503;SDS011;59323;50.874;7.028;2022-11-20T14:24:10;22.97;;;9.20;;
71503;SDS011;59323;50.874;7.028;2022-11-20T14:26:37;22.38;;;10.02;;
71503;SDS011;59323;50.874;7.028;2022-11-20T14:29:16;24.98;;;10.07;;
71503;SDS011;59323;50.874;7.028;2022-11-20T14:31:47;22.58;;;10.15;;
71503;SDS011;59323;50.874;7.028;2022-11-20T14:34:26;22.00;;;9.40;;
71503;SDS011;59323;50.874;7.028;2022-11-20T14:36:58;21.77;;;9.37;;
71503;SDS011;59323;50.874;7.028;2022-11-20T14:39:29;24.67;;;10.25;;
71503;SDS011;59323;50.874;7.028;2022-11-20T14:41:57;24.65;;;9.35;;
71503;SDS011;59323;50.874;7.028;2022-11-20T14:44:25;22.50;;;9.10;;
71503;SDS011;59323;50.874;7.028;2022-11-20T14:46:59;23.92;;;8.68;;
71503;SDS011;59323;50.874;7.028;2022-11-20T14:49:28;23.90;;;9.23;;
71503;SDS011;59323;50.874;7.028;2022-11-20T14:52:02;25.08;;;9.85;;
71503;SDS011;59323;50.874;7.028;2022-11-20T14:54:43;21.88;;;9.50;;
71503;SDS011;59323;50.874;7.028;2022-11-20T14:57:18;22.83;;;9.23;;
71503;SDS011;59323;50.874;7.028;2022-11-20T15:02:33;25.35;;;9.90;;
71503;SDS011;59323;50.874;7.028;2022-11-20T15:04:59;22.92;;;9.80;;
71503;SDS011;59323;50.874;7.028;2022-11-20T15:07:30;26.20;;;10.57;;
71503;SDS011;59323;50.874;7.028;2022-11-20T15:10:05;23.65;;;10.02;;
71503;SDS011;59323;50.874;7.028;2022-11-20T15:12:33;27.50;;;9.68;;
71503;SDS011;59323;50.874;7.028;2022-11-20T15:15:02;23.42;;;10.00;;
71503;SDS011;59323;50.874;7.028;2022-11-20T15:17:30;28.45;;;10.45;;
71503;SDS011;59323;50.874;7.028;2022-11-20T15:19:56;23.17;;;9.47;;
71503;SDS011;59323;50.874;7.028;2022-11-20T15:22:22;25.95;;;9.80;;
71503;SDS011;59323;50.874;7.028;2022-11-20T15:24:47;26.13;;;10.00;;
71503;SDS011;59323;50.874;7.028;2022-11-20T15:27:12;27.27;;;11.57;;
71503;SDS011;59323;50.874;7.028;2022-11-20T15:29:38;24.17;;;10.17;;
71503;SDS011;59323;50.874;7.028;2022-11-20T15:32:03;24.45;;;10.02;;
71503;SDS011;59323;50.874;7.028;2022-11-20T15:34:29;26.43;;;10.60;;
71503;SDS011;59323;50.874;7.028;2022-11-20T15:36:54;24.10;;;9.43;;
71503;SDS011;59323;50.874;7.028;2022-11-20T15:39:20;25.48;;;8.93;;
71503;SDS011;59323;50.874;7.028;2022-11-20T15:41:45;27.27;;;10.00;;
71503;SDS011;59323;50.874;7.028;2022-11-20T15:44:11;25.17;;;9.50;;
71503;SDS011;59323;50.874;7.028;2022-11-20T15:46:40;24.60;;;9.05;;
71503;SDS011;59323;50.874;7.028;2022-11-20T15:49:11;24.80;;;9.88;;
71503;SDS011;59323;50.874;7.028;2022-11-20T15:51:39;24.70;;;10.30;;
71503;SDS011;59323;50.874;7.028;2022-11-20T15:56:36;35.78;;;14.23;;
71503;SDS011;59323;50.874;7.028;2022-11-20T15:59:02;34.53;;;14.50;;
71503;SDS011;59323;50.874;7.028;2022-11-20T16:01:28;29.33;;;12.63;;
71503;SDS011;59323;50.874;7.028;2022-11-20T16:03:53;23.88;;;10.60;;
71503;SDS011;59323;50.874;7.028;2022-11-20T16:06:19;21.87;;;9.03;;
71503;SDS011;59323;50.874;7.028;2022-11-20T16:08:44;21.30;;;8.83;;
71503;SDS011;59323;50.874;7.028;2022-11-20T16:11:10;19.13;;;7.25;;
71503;SDS011;59323;50.874;7.028;2022-11-20T16:13:38;20.13;;;8.00;;
71503;SDS011;59323;50.874;7.028;2022-11-20T16:16:23;17.98;;;6.60;;
71503;SDS011;59323;50.874;7.028;2022-11-20T16:18:53;15.85;;;6.20;;
71503;SDS011;59323;50.874;7.028;2022-11-20T16:21:19;14.67;;;5.70;;
71503;SDS011;59323;50.874;7.028;2022-11-20T16:23:44;15.13;;;5.38;;
71503;SDS011;59323;50.874;7.028;2022-11-20T16:26:10;20.37;;;6.83;;
71503;SDS011;59323;50.874;7.028;2022-11-20T16:28:40;13.32;;;5.53;;
71503;SDS011;59323;50.874;7.028;2022-11-20T16:31:12;15.33;;;5.43;;
71503;SDS011;59323;50.874;7.028;2022-11-20T16:33:39;11.77;;;5.00;;
71503;SDS011;59323;50.874;7.028;2022-11-20T16:36:12;13.53;;;5.30;;